Fonthida Naree — HSJR — position and weather

sailwx.info

Track history (hours):
 
Tides and Currents Weather Stations Pressure Air Temp Water Temp Dewpoint Dewpoint Depression Visibility Wind Speed Wind Dir Waves Ship Positions

Fonthida Naree

Last reported at 2015-Mar-14 10:33 UTC. Time now 2015-Mar-28 17:40 UTC.
Position N 50°14' W 003°29'.
Warning: this ship's position is 14 days out of date.

Length 170 m; draft 8.8 m.

Type: Cargo ship. MMSI: 567265000.

Date/timePositionNaut miles runAvg speedWind from/ knotsBaromVisibWave heightAir tempDewpointWater temp
2015-Mar-14 10:33N 50°14' W 003°29'10 9.7
2015-Mar-14 09:33N 50°23' W 003°24'5 4.9
2015-Mar-14 08:33N 50°24' W 003°17'13111.9
2015-Mar-13 21:33N 50°33' E 000°08'1313.3
2015-Mar-13 20:33N 50°37' E 000°28'1313.2
2015-Mar-13 19:33N 50°44' E 000°46'1412.8
2015-Mar-13 18:28N 50°52' E 001°04'1211.9
2015-Mar-13 17:29N 50°59' E 001°18'1011.2
2015-Mar-13 16:33N 51°06' E 001°30'1111.4
2015-Mar-13 15:33N 51°14' E 001°44'1212.4
2015-Mar-13 14:33N 51°24' E 001°55'1313.4
2015-Mar-13 13:33N 51°35' E 002°08'1414.0
2015-Mar-13 12:33N 51°45' E 002°23'1413.2
2015-Mar-13 11:28N 51°57' E 002°37'1712.6
2015-Mar-13 10:07N 52°14' E 002°37'711.9
2015-Mar-13 09:32N 52°21' E 002°37'21610.8
2015-Mar-12 13:33N 55°24' E 005°50'1211.6
2015-Mar-12 12:33N 55°34' E 006°02'1211.6
2015-Mar-12 11:32N 55°43' E 006°15'1211.4
2015-Mar-12 10:31N 55°53' E 006°26'1311.6
2015-Mar-12 09:22N 56°04' E 006°38'16211.6
2015-Mar-11 19:26N 57°50' E 010°24'1011.4
2015-Mar-11 18:32N 57°50' E 010°43'1111.5
2015-Mar-11 17:33N 57°42' E 010°59'1211.6
2015-Mar-11 16:33N 57°34' E 011°15'1111.5
2015-Mar-11 15:33N 57°25' E 011°29'1211.6
2015-Mar-11 14:34N 57°15' E 011°36'1211.7
2015-Mar-11 13:33N 57°04' E 011°43'1211.9
2015-Mar-11 12:33N 56°52' E 011°50'137 9.1
2015-Mar-10 21:29N 54°37' E 011°08'8 8.7
2015-Mar-10 20:33N 54°33' E 011°20'10 9.8
2015-Mar-10 19:33N 54°29' E 011°35'1111.1
2015-Mar-10 18:33N 54°26' E 011°54'1110.3
2015-Mar-10 17:32N 54°30' E 012°11'17 4.1
2015-Mar-10 13:14N 54°45' E 012°27'37 9.9
2015-Mar-10 09:33N 54°57' E 013°27'1311.3
2015-Mar-10 08:26N 55°01' E 013°47'1011.3
2015-Mar-10 07:33N 55°05' E 014°03'1111.0
2015-Mar-10 06:33N 55°13' E 014°16'1111.1
2015-Mar-10 05:33N 55°22' E 014°29'1111.2
2015-Mar-10 04:33N 55°29' E 014°43'1111.4
2015-Mar-10 03:33N 55°35' E 015°01'1211.7
2015-Mar-10 02:33N 55°39' E 015°20'6411.8
2015-Mar-09 21:05N 55°55' E 017°11'30510.7
2015-Mar-08 16:31N 59°40' E 023°37'88 9.8
2015-Mar-08 07:32N 60°00' E 026°27'1111.0
2015-Mar-08 06:32N 60°00' E 026°49'101 9.2
2015-Mar-07 19:33N 59°53' E 030°11'1 0.8
2015-Mar-07 18:25N 59°53' E 030°12'0 0.0
2015-Mar-07 17:19N 59°53' E 030°12'0 0.0
2015-Mar-07 15:25N 59°53' E 030°12'0 0.0
2015-Mar-07 14:13N 59°53' E 030°12'  
Track history (hours):
 
Tides and Currents Weather Stations Pressure Air Temp Water Temp Dewpoint Dewpoint Depression Visibility Wind Speed Wind Dir Waves Ship Positions

Fonthida Naree

Last reported at 2015-Mar-14 10:33 UTC. Time now 2015-Mar-28 17:40 UTC.
Position N 50°14' W 003°29'.
Warning: this ship's position is 14 days out of date.

Length 170 m; draft 8.8 m.

Type: Cargo ship. MMSI: 567265000.

Date/timePositionNaut miles runAvg speedWind from/ knotsBaromVisibWave heightAir tempDewpointWater temp
2015-Mar-14 10:33N 50°14' W 003°29'10 9.7
2015-Mar-14 09:33N 50°23' W 003°24'5 4.9
2015-Mar-14 08:33N 50°24' W 003°17'13111.9
2015-Mar-13 21:33N 50°33' E 000°08'1313.3
2015-Mar-13 20:33N 50°37' E 000°28'1313.2
2015-Mar-13 19:33N 50°44' E 000°46'1412.8
2015-Mar-13 18:28N 50°52' E 001°04'1211.9
2015-Mar-13 17:29N 50°59' E 001°18'1011.2
2015-Mar-13 16:33N 51°06' E 001°30'1111.4
2015-Mar-13 15:33N 51°14' E 001°44'1212.4
2015-Mar-13 14:33N 51°24' E 001°55'1313.4
2015-Mar-13 13:33N 51°35' E 002°08'1414.0
2015-Mar-13 12:33N 51°45' E 002°23'1413.2
2015-Mar-13 11:28N 51°57' E 002°37'1712.6
2015-Mar-13 10:07N 52°14' E 002°37'711.9
2015-Mar-13 09:32N 52°21' E 002°37'21610.8
2015-Mar-12 13:33N 55°24' E 005°50'1211.6
2015-Mar-12 12:33N 55°34' E 006°02'1211.6
2015-Mar-12 11:32N 55°43' E 006°15'1211.4
2015-Mar-12 10:31N 55°53' E 006°26'1311.6
2015-Mar-12 09:22N 56°04' E 006°38'16211.6
2015-Mar-11 19:26N 57°50' E 010°24'1011.4
2015-Mar-11 18:32N 57°50' E 010°43'1111.5
2015-Mar-11 17:33N 57°42' E 010°59'1211.6
2015-Mar-11 16:33N 57°34' E 011°15'1111.5
2015-Mar-11 15:33N 57°25' E 011°29'1211.6
2015-Mar-11 14:34N 57°15' E 011°36'1211.7
2015-Mar-11 13:33N 57°04' E 011°43'1211.9
2015-Mar-11 12:33N 56°52' E 011°50'137 9.1
2015-Mar-10 21:29N 54°37' E 011°08'8 8.7
2015-Mar-10 20:33N 54°33' E 011°20'10 9.8
2015-Mar-10 19:33N 54°29' E 011°35'1111.1
2015-Mar-10 18:33N 54°26' E 011°54'1110.3
2015-Mar-10 17:32N 54°30' E 012°11'17 4.1
2015-Mar-10 13:14N 54°45' E 012°27'37 9.9
2015-Mar-10 09:33N 54°57' E 013°27'1311.3
2015-Mar-10 08:26N 55°01' E 013°47'1011.3
2015-Mar-10 07:33N 55°05' E 014°03'1111.0
2015-Mar-10 06:33N 55°13' E 014°16'1111.1
2015-Mar-10 05:33N 55°22' E 014°29'1111.2
2015-Mar-10 04:33N 55°29' E 014°43'1111.4
2015-Mar-10 03:33N 55°35' E 015°01'1211.7
2015-Mar-10 02:33N 55°39' E 015°20'6411.8
2015-Mar-09 21:05N 55°55' E 017°11'30510.7
2015-Mar-08 16:31N 59°40' E 023°37'88 9.8
2015-Mar-08 07:32N 60°00' E 026°27'1111.0
2015-Mar-08 06:32N 60°00' E 026°49'101 9.2
2015-Mar-07 19:33N 59°53' E 030°11'1 0.8
2015-Mar-07 18:25N 59°53' E 030°12'0 0.0
2015-Mar-07 17:19N 59°53' E 030°12'0 0.0
2015-Mar-07 15:25N 59°53' E 030°12'0 0.0
2015-Mar-07 14:13N 59°53' E 030°12'  

Dump ship's entire track history